Alsen — P3EE9 — position and weather

sailwx.info

Track history (hours):
 
Tides and Currents Weather Stations Pressure Air Temp Water Temp Dewpoint Dewpoint Depression Visibility Wind Speed Wind Dir Waves Ship Positions

Alsen

Last reported at 2017-Nov-27 20:52 UTC. Time now 2017-Dec-16 22:41 UTC.
Position N 38°48' E 001°25'.
Warning: this ship's position is 19 days out of date.

Length 100 m; draft 4.1 m.

Type: Ship. MMSI: 210350000.

Date/timePositionNaut miles runAvg speedWind from/ knotsBaromVisibWave heightAir tempDewpointWater temp
2017-Nov-27 20:52N 38°48' E 001°25'4 8.1
2017-Nov-27 20:22N 38°52' E 001°28'1 0.5
2017-Nov-27 18:57N 38°52' E 001°28'0 0.0
2017-Nov-27 15:54N 38°52' E 001°28'0 0.0
2017-Nov-27 15:12N 38°52' E 001°28'0 0.0
2017-Nov-27 14:24N 38°52' E 001°28'0 0.0
2017-Nov-27 13:54N 38°52' E 001°28'0 0.0
2017-Nov-27 13:30N 38°52' E 001°28'0 0.0
2017-Nov-27 12:57N 38°52' E 001°28'0 0.0
2017-Nov-27 12:21N 38°52' E 001°28'0 0.0
2017-Nov-27 11:51N 38°52' E 001°28'0 0.1
2017-Nov-27 11:30N 38°52' E 001°28'0 0.0
2017-Nov-27 11:00N 38°52' E 001°28'0 0.0
2017-Nov-27 10:30N 38°52' E 001°28'0 0.0
2017-Nov-27 10:00N 38°52' E 001°28'0 0.0
2017-Nov-27 07:54N 38°52' E 001°28'0 0.1
2017-Nov-27 07:30N 38°52' E 001°28'8 0.9
2017-Nov-26 21:51N 38°44' E 001°25'1 1.2
2017-Nov-26 21:27N 38°45' E 001°25'3 5.5
2017-Nov-26 20:56N 38°47' E 001°24'4 8.7
2017-Nov-26 20:29N 38°51' E 001°27'2 3.0
2017-Nov-26 19:58N 38°52' E 001°28'0 0.0
2017-Nov-26 19:28N 38°52' E 001°28'0 0.0
2017-Nov-26 18:58N 38°52' E 001°28'0 0.0
2017-Nov-26 18:28N 38°52' E 001°28'0 0.0
2017-Nov-26 17:58N 38°52' E 001°28'0 0.0
2017-Nov-26 17:25N 38°52' E 001°28'0 0.0
2017-Nov-26 16:58N 38°52' E 001°28'0 0.0
2017-Nov-26 16:28N 38°52' E 001°28'0 0.0
2017-Nov-26 15:58N 38°52' E 001°28'0 0.0
2017-Nov-26 15:28N 38°52' E 001°28'0 0.0
2017-Nov-26 14:58N 38°52' E 001°28'0 0.0
2017-Nov-26 14:28N 38°52' E 001°28'0 0.0
2017-Nov-26 13:58N 38°52' E 001°28'0 0.0
2017-Nov-26 13:28N 38°52' E 001°28'0 0.0
2017-Nov-26 12:58N 38°52' E 001°28'0 0.0
2017-Nov-26 12:28N 38°52' E 001°28'0 0.0
2017-Nov-26 11:58N 38°52' E 001°28'0 0.0
2017-Nov-26 11:28N 38°52' E 001°28'0 0.0
2017-Nov-26 10:58N 38°52' E 001°28'0 0.0
2017-Nov-26 10:28N 38°52' E 001°28'0 0.0
2017-Nov-26 09:58N 38°52' E 001°28'0 0.0
2017-Nov-26 09:28N 38°52' E 001°28'0 0.0
2017-Nov-26 08:58N 38°52' E 001°28'0 0.0
2017-Nov-26 08:28N 38°52' E 001°28'0 0.0
2017-Nov-26 07:58N 38°52' E 001°28'0 0.0
2017-Nov-26 07:28N 38°52' E 001°28'0 0.0
2017-Nov-26 06:55N 38°52' E 001°28'0 0.0
2017-Nov-26 06:28N 38°52' E 001°28'0 0.0
2017-Nov-26 05:58N 38°52' E 001°28'0 0.0
2017-Nov-26 05:25N 38°52' E 001°28'0 0.0
2017-Nov-26 04:55N 38°52' E 001°28'0 0.0
2017-Nov-26 04:28N 38°52' E 001°28'0 0.0
2017-Nov-26 03:58N 38°52' E 001°28'0 0.0
2017-Nov-26 03:28N 38°52' E 001°28'0 0.0
2017-Nov-26 02:58N 38°52' E 001°28'0 0.0
2017-Nov-26 02:28N 38°52' E 001°28'0 0.0
2017-Nov-26 01:55N 38°52' E 001°28'0 0.0
2017-Nov-26 01:28N 38°52' E 001°28'0 0.0
2017-Nov-26 00:58N 38°52' E 001°28'0 0.0
2017-Nov-26 00:25N 38°52' E 001°28'0 0.0
2017-Nov-25 23:49N 38°52' E 001°28'0 0.0
2017-Nov-25 23:28N 38°52' E 001°28'0 0.0
2017-Nov-25 22:55N 38°52' E 001°28'0 0.2
2017-Nov-25 22:28N 38°52' E 001°28'2 4.4
2017-Nov-25 21:56N 38°50' E 001°26'4 8.5
2017-Nov-25 21:28N 38°47' E 001°24'2 3.4
2017-Nov-25 20:53N 38°45' E 001°24'20 4.5
2017-Nov-25 16:28N 38°32' E 001°04'710.4
2017-Nov-25 15:50N 38°28' E 000°58'310.5
2017-Nov-25 15:30N 38°26' E 000°54'1610.4
2017-Nov-25 13:59N 38°16' E 000°39'510.8
2017-Nov-25 13:30N 38°12' E 000°34'510.9
2017-Nov-25 13:00N 38°09' E 000°28'611.1
2017-Nov-25 12:30N 38°05' E 000°23'1010.9
2017-Nov-25 11:35N 37°59' E 000°13'111.0
2017-Nov-25 11:28N 37°58' E 000°12'510.6
2017-Nov-25 11:00N 37°55' E 000°07'510.2
2017-Nov-25 10:30N 37°51' E 000°02'510.0
2017-Nov-25 10:00N 37°48' W 000°02'710.1
2017-Nov-25 09:17N 37°44' W 000°09'310.2
2017-Nov-25 09:00N 37°42' W 000°12'510.4
2017-Nov-25 08:30N 37°38' W 000°17'510.6
2017-Nov-25 08:00N 37°35' W 000°22'510.5
2017-Nov-25 07:30N 37°32' W 000°27'1010.4
2017-Nov-25 06:33N 37°25' W 000°37'110.6
2017-Nov-25 06:29N 37°25' W 000°37'510.6
2017-Nov-25 06:00N 37°21' W 000°43'510.7
2017-Nov-25 05:30N 37°18' W 000°48'610.7
2017-Nov-25 04:58N 37°14' W 000°53'610.6
2017-Nov-25 04:21N 37°10' W 000°60'21710.5
2017-Nov-24 07:38N 35°59' W 005°15'212.0
2017-Nov-24 07:30N 35°59' W 005°17'811.8
2017-Nov-24 06:48N 35°57' W 005°27'55 1.8
2017-Nov-23 00:20N 36°23' W 006°27'  
Track history (hours):
 
Tides and Currents Weather Stations Pressure Air Temp Water Temp Dewpoint Dewpoint Depression Visibility Wind Speed Wind Dir Waves Ship Positions

Alsen

Last reported at 2017-Nov-27 20:52 UTC. Time now 2017-Dec-16 22:41 UTC.
Position N 38°48' E 001°25'.
Warning: this ship's position is 19 days out of date.

Length 100 m; draft 4.1 m.

Type: Ship. MMSI: 210350000.

Date/timePositionNaut miles runAvg speedWind from/ knotsBaromVisibWave heightAir tempDewpointWater temp
2017-Nov-27 20:52N 38°48' E 001°25'4 8.1
2017-Nov-27 20:22N 38°52' E 001°28'1 0.5
2017-Nov-27 18:57N 38°52' E 001°28'0 0.0
2017-Nov-27 15:54N 38°52' E 001°28'0 0.0
2017-Nov-27 15:12N 38°52' E 001°28'0 0.0
2017-Nov-27 14:24N 38°52' E 001°28'0 0.0
2017-Nov-27 13:54N 38°52' E 001°28'0 0.0
2017-Nov-27 13:30N 38°52' E 001°28'0 0.0
2017-Nov-27 12:57N 38°52' E 001°28'0 0.0
2017-Nov-27 12:21N 38°52' E 001°28'0 0.0
2017-Nov-27 11:51N 38°52' E 001°28'0 0.1
2017-Nov-27 11:30N 38°52' E 001°28'0 0.0
2017-Nov-27 11:00N 38°52' E 001°28'0 0.0
2017-Nov-27 10:30N 38°52' E 001°28'0 0.0
2017-Nov-27 10:00N 38°52' E 001°28'0 0.0
2017-Nov-27 07:54N 38°52' E 001°28'0 0.1
2017-Nov-27 07:30N 38°52' E 001°28'8 0.9
2017-Nov-26 21:51N 38°44' E 001°25'1 1.2
2017-Nov-26 21:27N 38°45' E 001°25'3 5.5
2017-Nov-26 20:56N 38°47' E 001°24'4 8.7
2017-Nov-26 20:29N 38°51' E 001°27'2 3.0
2017-Nov-26 19:58N 38°52' E 001°28'0 0.0
2017-Nov-26 19:28N 38°52' E 001°28'0 0.0
2017-Nov-26 18:58N 38°52' E 001°28'0 0.0
2017-Nov-26 18:28N 38°52' E 001°28'0 0.0
2017-Nov-26 17:58N 38°52' E 001°28'0 0.0
2017-Nov-26 17:25N 38°52' E 001°28'0 0.0
2017-Nov-26 16:58N 38°52' E 001°28'0 0.0
2017-Nov-26 16:28N 38°52' E 001°28'0 0.0
2017-Nov-26 15:58N 38°52' E 001°28'0 0.0
2017-Nov-26 15:28N 38°52' E 001°28'0 0.0
2017-Nov-26 14:58N 38°52' E 001°28'0 0.0
2017-Nov-26 14:28N 38°52' E 001°28'0 0.0
2017-Nov-26 13:58N 38°52' E 001°28'0 0.0
2017-Nov-26 13:28N 38°52' E 001°28'0 0.0
2017-Nov-26 12:58N 38°52' E 001°28'0 0.0
2017-Nov-26 12:28N 38°52' E 001°28'0 0.0
2017-Nov-26 11:58N 38°52' E 001°28'0 0.0
2017-Nov-26 11:28N 38°52' E 001°28'0 0.0
2017-Nov-26 10:58N 38°52' E 001°28'0 0.0
2017-Nov-26 10:28N 38°52' E 001°28'0 0.0
2017-Nov-26 09:58N 38°52' E 001°28'0 0.0
2017-Nov-26 09:28N 38°52' E 001°28'0 0.0
2017-Nov-26 08:58N 38°52' E 001°28'0 0.0
2017-Nov-26 08:28N 38°52' E 001°28'0 0.0
2017-Nov-26 07:58N 38°52' E 001°28'0 0.0
2017-Nov-26 07:28N 38°52' E 001°28'0 0.0
2017-Nov-26 06:55N 38°52' E 001°28'0 0.0
2017-Nov-26 06:28N 38°52' E 001°28'0 0.0
2017-Nov-26 05:58N 38°52' E 001°28'0 0.0
2017-Nov-26 05:25N 38°52' E 001°28'0 0.0
2017-Nov-26 04:55N 38°52' E 001°28'0 0.0
2017-Nov-26 04:28N 38°52' E 001°28'0 0.0
2017-Nov-26 03:58N 38°52' E 001°28'0 0.0
2017-Nov-26 03:28N 38°52' E 001°28'0 0.0
2017-Nov-26 02:58N 38°52' E 001°28'0 0.0
2017-Nov-26 02:28N 38°52' E 001°28'0 0.0
2017-Nov-26 01:55N 38°52' E 001°28'0 0.0
2017-Nov-26 01:28N 38°52' E 001°28'0 0.0
2017-Nov-26 00:58N 38°52' E 001°28'0 0.0
2017-Nov-26 00:25N 38°52' E 001°28'0 0.0
2017-Nov-25 23:49N 38°52' E 001°28'0 0.0
2017-Nov-25 23:28N 38°52' E 001°28'0 0.0
2017-Nov-25 22:55N 38°52' E 001°28'0 0.2
2017-Nov-25 22:28N 38°52' E 001°28'2 4.4
2017-Nov-25 21:56N 38°50' E 001°26'4 8.5
2017-Nov-25 21:28N 38°47' E 001°24'2 3.4
2017-Nov-25 20:53N 38°45' E 001°24'20 4.5
2017-Nov-25 16:28N 38°32' E 001°04'710.4
2017-Nov-25 15:50N 38°28' E 000°58'310.5
2017-Nov-25 15:30N 38°26' E 000°54'1610.4
2017-Nov-25 13:59N 38°16' E 000°39'510.8
2017-Nov-25 13:30N 38°12' E 000°34'510.9
2017-Nov-25 13:00N 38°09' E 000°28'611.1
2017-Nov-25 12:30N 38°05' E 000°23'1010.9
2017-Nov-25 11:35N 37°59' E 000°13'111.0
2017-Nov-25 11:28N 37°58' E 000°12'510.6
2017-Nov-25 11:00N 37°55' E 000°07'510.2
2017-Nov-25 10:30N 37°51' E 000°02'510.0
2017-Nov-25 10:00N 37°48' W 000°02'710.1
2017-Nov-25 09:17N 37°44' W 000°09'310.2
2017-Nov-25 09:00N 37°42' W 000°12'510.4
2017-Nov-25 08:30N 37°38' W 000°17'510.6
2017-Nov-25 08:00N 37°35' W 000°22'510.5
2017-Nov-25 07:30N 37°32' W 000°27'1010.4
2017-Nov-25 06:33N 37°25' W 000°37'110.6
2017-Nov-25 06:29N 37°25' W 000°37'510.6
2017-Nov-25 06:00N 37°21' W 000°43'510.7
2017-Nov-25 05:30N 37°18' W 000°48'610.7
2017-Nov-25 04:58N 37°14' W 000°53'610.6
2017-Nov-25 04:21N 37°10' W 000°60'21710.5
2017-Nov-24 07:38N 35°59' W 005°15'212.0
2017-Nov-24 07:30N 35°59' W 005°17'811.8
2017-Nov-24 06:48N 35°57' W 005°27'55 1.8
2017-Nov-23 00:20N 36°23' W 006°27'  

Dump ship's entire track history